Time;durP1;ratioP1;P1;durP2;ratioP2;P2;SDS_P1;SDS_P2;PMS_P1;PMS_P2;Temp;Humidity;BMP_temperature;BMP_pressure;BME280_temperature;BME280_humidity;BME280_pressure;Samples;Min_cycle;Max_cycle;Signal;HPM_P1;HPM_P2
2021/04/04 00:00:01;;;;;;;;;;;;;;;6.48;100.00;100898.02;1862628;77;20134;-75
2021/04/04 00:02:31;;;;;;;;;;;;;;;6.49;100.00;100900.16;1861218;77;20146;-75
2021/04/04 00:04:59;;;;;;;;;;;;;;;6.48;100.00;100899.80;1862967;77;20137;-76
2021/04/04 00:07:29;;;;;;;;;;;;;;;6.46;100.00;100906.74;1862674;77;20480;-76
2021/04/04 00:09:57;;;;;;;;;;;;;;;6.44;100.00;100908.56;1863043;77;21239;-76
2021/04/04 00:12:25;;;;;;;;;;;;;;;6.42;100.00;100912.48;1862586;77;20215;-75
2021/04/04 00:14:52;;;;;;;;;;;;;;;6.45;100.00;100914.92;1862734;77;20126;-76
2021/04/04 00:17:21;;;;;;;;;;;;;;;6.46;100.00;100919.19;1862673;77;20292;-76
2021/04/04 00:19:49;;;;;;;;;;;;;;;6.44;100.00;100913.72;1862746;76;20480;-76
2021/04/04 00:22:17;;;;;;;;;;;;;;;6.43;100.00;100915.45;1862745;77;21190;-76
2021/04/04 00:24:45;;;;;;;;;;;;;;;6.42;100.00;100916.35;1862749;77;20300;-75
2021/04/04 00:27:13;;;;;;;;;;;;;;;6.39;100.00;100908.31;1862777;77;20331;-76
2021/04/04 00:29:41;;;;;;;;;;;;;;;6.39;100.00;100912.17;1862701;77;20245;-76
2021/04/04 00:32:09;;;;;;;;;;;;;;;6.37;100.00;100920.44;1862836;77;20234;-77
2021/04/04 00:34:38;;;;;;;;;;;;;;;6.36;100.00;100929.06;1871048;76;21291;-77
2021/04/04 00:37:06;;;;;;;;;;;;;;;6.36;100.00;100928.22;1874391;76;20136;-75
2021/04/04 00:39:34;;;;;;;;;;;;;;;6.32;100.00;100924.94;1871948;76;20173;-76
2021/04/04 00:42:01;;;;;;;;;;;;;;;6.30;100.00;100928.50;1871863;76;20125;-75
2021/04/04 00:44:30;;;;;;;;;;;;;;;6.28;100.00;100924.72;1872044;76;20288;-77
2021/04/04 00:46:57;;;;;;;;;;;;;;;6.28;100.00;100922.59;1872246;76;21182;-76
2021/04/04 00:49:25;;;;;;;;;;;;;;;6.27;100.00;100918.33;1872127;76;20126;-77
2021/04/04 00:51:52;;;;;;;;;;;;;;;6.27;100.00;100924.33;1872175;76;20221;-77
2021/04/04 00:54:21;;;;;;;;;;;;;;;6.26;100.00;100923.09;1843262;76;20209;-76
2021/04/04 00:56:48;;;;;;;;;;;;;;;6.23;100.00;100922.78;1871915;76;20177;-76
2021/04/04 00:59:16;;;;;;;;;;;;;;;6.18;100.00;100932.46;1872290;76;20614;-76
2021/04/04 01:01:46;;;;;;;;;;;;;;;6.14;100.00;100936.52;1871970;76;20153;-76
2021/04/04 01:04:14;;;;;;;;;;;;;;;6.14;100.00;100930.91;1871901;76;20146;-75
2021/04/04 01:06:42;;;;;;;;;;;;;;;6.12;100.00;100935.31;1871971;76;20122;-76
2021/04/04 01:09:10;;;;;;;;;;;;;;;6.07;100.00;100932.52;1871824;76;20232;-76
2021/04/04 01:11:53;;;;;;;;;;;;;;;6.04;100.00;100927.50;1871986;76;20133;-77
2021/04/04 01:14:24;;;;;;;;;;;;;;;5.99;100.00;100930.30;1871906;76;20185;-75
2021/04/04 01:16:53;;;;;;;;;;;;;;;5.99;100.00;100934.60;1869866;76;20205;-77
2021/04/04 01:19:39;;;;;;;;;;;;;;;5.94;100.00;100936.52;1874416;76;20172;-75
2021/04/04 01:22:31;;;;;;;;;;;;;;;5.88;100.00;100935.05;1872158;76;20212;-74
2021/04/04 01:25:08;;;;;;;;;;;;;;;5.85;100.00;100943.75;1871453;76;21281;-76
2021/04/04 01:27:56;;;;;;;;;;;;;;;5.85;100.00;100937.72;1871958;76;20141;-75
2021/04/04 01:30:27;;;;;;;;;;;;;;;5.87;100.00;100934.69;1871951;76;32334;-77
2021/04/04 01:32:55;;;;;;;;;;;;;;;5.89;100.00;100932.87;1871914;76;20213;-76
2021/04/04 01:35:24;;;;;;;;;;;;;;;5.90;100.00;100933.27;1857965;76;20126;-75
2021/04/04 01:37:53;;;;;;;;;;;;;;;5.90;100.00;100938.42;1856521;77;20498;-75
2021/04/04 01:40:21;;;;;;;;;;;;;;;5.90;100.00;100950.45;1856354;77;20218;-75
2021/04/04 01:42:49;;;;;;;;;;;;;;;5.88;100.00;100945.35;1856333;77;20106;-74
2021/04/04 01:45:19;;;;;;;;;;;;;;;5.86;100.00;100944.59;1856340;77;20135;-74
2021/04/04 01:47:48;;;;;;;;;;;;;;;5.83;100.00;100946.81;1856080;77;20106;-75
2021/04/04 01:50:16;;;;;;;;;;;;;;;5.81;100.00;100956.33;1856261;77;21241;-74
2021/04/04 01:52:45;;;;;;;;;;;;;;;5.77;100.00;100954.80;1824022;77;20272;-75
2021/04/04 01:55:20;;;;;;;;;;;;;;;5.77;100.00;100962.97;1856169;77;20237;-75
2021/04/04 01:57:48;;;;;;;;;;;;;;;5.81;100.00;100964.50;1856267;77;20670;-73
2021/04/04 02:00:18;;;;;;;;;;;;;;;5.82;100.00;100974.75;1856734;77;20126;-73
2021/04/04 02:02:46;;;;;;;;;;;;;;;5.84;100.00;100983.69;1857448;77;20526;-73
2021/04/04 02:05:15;;;;;;;;;;;;;;;5.85;100.00;100987.95;1856234;77;20218;-74
2021/04/04 02:07:43;;;;;;;;;;;;;;;5.87;100.00;100973.31;1856371;77;20127;-75
2021/04/04 02:10:15;;;;;;;;;;;;;;;5.88;100.00;100983.98;1856464;77;20230;-74
2021/04/04 02:12:44;;;;;;;;;;;;;;;5.91;100.00;100985.59;1824928;77;20186;-75
2021/04/04 02:15:13;;;;;;;;;;;;;;;5.91;100.00;100986.43;1856459;77;21262;-74
2021/04/04 02:17:41;;;;;;;;;;;;;;;5.91;100.00;100988.16;1856180;77;20269;-74
2021/04/04 02:20:11;;;;;;;;;;;;;;;5.89;100.00;100988.25;1856214;77;20221;-74
2021/04/04 02:22:42;;;;;;;;;;;;;;;5.88;100.00;100990.42;1856189;77;20488;-74
2021/04/04 02:25:10;;;;;;;;;;;;;;;5.91;100.00;100993.31;1856428;77;20295;-74
2021/04/04 02:27:44;;;;;;;;;;;;;;;5.91;100.00;100998.47;1856460;77;21620;-73
2021/04/04 02:30:15;;;;;;;;;;;;;;;5.90;100.00;100989.93;1856448;77;20691;-73
2021/04/04 02:33:02;;;;;;;;;;;;;;;5.91;100.00;100984.30;1856483;77;20293;-73
2021/04/04 02:35:33;;;;;;;;;;;;;;;5.87;100.00;100979.75;1856375;76;20277;-74
2021/04/04 02:38:03;;;;;;;;;;;;;;;5.81;100.00;100986.39;1856321;77;20221;-73
2021/04/04 02:40:31;;;;;;;;;;;;;;;5.80;100.00;100993.75;1856542;77;21320;-74
2021/04/04 02:42:58;;;;;;;;;;;;;;;5.78;100.00;100995.53;1857341;77;20498;-73
2021/04/04 02:45:27;;;;;;;;;;;;;;;5.77;100.00;101001.59;1857068;77;20500;-74
2021/04/04 02:48:05;;;;;;;;;;;;;;;5.74;100.00;101000.44;1856366;77;20824;-73
2021/04/04 02:50:33;;;;;;;;;;;;;;;5.71;100.00;100996.70;1856537;77;20150;-73
2021/04/04 02:53:01;;;;;;;;;;;;;;;5.70;100.00;100991.16;1856275;77;21452;-73
2021/04/04 02:55:30;;;;;;;;;;;;;;;5.68;100.00;100987.81;1856317;77;20145;-73
2021/04/04 02:57:58;;;;;;;;;;;;;;;5.68;100.00;100991.20;1856527;77;20488;-74
2021/04/04 03:00:26;;;;;;;;;;;;;;;5.69;100.00;100986.89;1856479;77;20159;-73
2021/04/04 03:02:54;;;;;;;;;;;;;;;5.69;100.00;100993.33;1856267;77;20106;-73
2021/04/04 03:05:23;;;;;;;;;;;;;;;5.69;100.00;100994.62;1856546;77;21297;-73
2021/04/04 03:07:51;;;;;;;;;;;;;;;5.70;100.00;100995.02;1856375;77;20214;-74
2021/04/04 03:10:19;;;;;;;;;;;;;;;5.69;100.00;101001.90;1856404;77;20185;-73
2021/04/04 03:12:48;;;;;;;;;;;;;;;5.67;100.00;100999.00;1856417;77;20245;-74
2021/04/04 03:15:16;;;;;;;;;;;;;;;5.65;100.00;101004.64;1856590;77;20491;-77
2021/04/04 03:17:44;;;;;;;;;;;;;;;5.61;100.00;101003.11;1856428;77;21358;-73
2021/04/04 03:20:13;;;;;;;;;;;;;;;5.57;100.00;101011.41;1856502;77;20205;-75
2021/04/04 03:22:43;;;;;;;;;;;;;;;5.54;100.00;101014.11;1856524;77;20158;-72
2021/04/04 03:25:11;;;;;;;;;;;;;;;5.51;100.00;101015.52;1856873;77;20653;-72
2021/04/04 03:27:44;;;;;;;;;;;;;;;5.47;100.00;101015.68;1856685;77;20289;-77
2021/04/04 03:30:35;;;;;;;;;;;;;;;5.46;100.00;101014.84;1856598;77;21887;-73
2021/04/04 03:32:42;;;;;;;;;;;;;;;5.45;100.00;101020.06;1851697;77;20150;-76
2021/04/04 03:35:12;;;;;;;;;;;;;;;5.46;100.00;101021.72;1864583;76;20221;-72
2021/04/04 03:37:40;;;;;;;;;;;;;;;5.44;100.00;101024.37;1872062;76;20788;-74
2021/04/04 03:40:10;;;;;;;;;;;;;;;5.42;100.00;101028.75;1872175;76;20219;-73
2021/04/04 03:42:37;;;;;;;;;;;;;;;5.42;100.00;101030.48;1872343;76;21246;-75
2021/04/04 03:45:06;;;;;;;;;;;;;;;5.40;100.00;101031.81;1871963;76;20272;-77
2021/04/04 03:47:34;;;;;;;;;;;;;;;5.38;100.00;101037.48;1872099;76;20126;-72
2021/04/04 03:50:03;;;;;;;;;;;;;;;5.32;100.00;101034.70;1872082;76;20133;-73
2021/04/04 03:52:31;;;;;;;;;;;;;;;5.28;100.00;101036.15;1872214;76;20165;-74
2021/04/04 03:54:59;;;;;;;;;;;;;;;5.27;100.00;101048.61;1843632;76;21071;-72
2021/04/04 03:57:27;;;;;;;;;;;;;;;5.23;100.00;101049.17;1872623;76;20145;-74
2021/04/04 03:59:55;;;;;;;;;;;;;;;5.21;100.00;101053.55;1872235;76;20483;-72
2021/04/04 04:02:22;;;;;;;;;;;;;;;5.24;100.00;101052.15;1872324;76;20542;-74
2021/04/04 04:04:50;;;;;;;;;;;;;;;5.25;100.00;101062.84;1873051;76;20189;-73
2021/04/04 04:07:19;;;;;;;;;;;;;;;5.28;100.00;101061.44;1872586;76;21138;-73
2021/04/04 04:09:47;;;;;;;;;;;;;;;5.29;100.00;101061.00;1872599;76;20149;-72
2021/04/04 04:12:14;;;;;;;;;;;;;;;5.32;100.00;101066.86;1872333;76;20240;-74
2021/04/04 04:14:42;;;;;;;;;;;;;;;5.37;100.00;101067.11;1872575;76;20509;-75
2021/04/04 04:17:10;;;;;;;;;;;;;;;5.38;100.00;101072.66;1872542;76;20268;-76
2021/04/04 04:19:39;;;;;;;;;;;;;;;5.39;100.00;101075.20;1872895;76;21192;-74
2021/04/04 04:22:07;;;;;;;;;;;;;;;5.39;100.00;101084.64;1872249;76;20748;-76
2021/04/04 04:24:35;;;;;;;;;;;;;;;5.38;100.00;101090.67;1872403;76;20491;-74
2021/04/04 04:27:03;;;;;;;;;;;;;;;5.39;100.00;101093.20;1872406;76;20138;-73
2021/04/04 04:29:30;;;;;;;;;;;;;;;5.41;100.00;101093.98;1843967;76;20283;-74
2021/04/04 04:31:59;;;;;;;;;;;;;;;5.42;99.71;101093.53;1872289;76;21174;-72
2021/04/04 04:34:27;;;;;;;;;;;;;;;5.42;99.59;101088.39;1871664;76;20145;-73
2021/04/04 04:36:54;;;;;;;;;;;;;;;5.44;99.48;101092.58;1872198;76;20212;-74
2021/04/04 04:39:25;;;;;;;;;;;;;;;5.46;99.29;101102.80;1872332;76;20113;-75
2021/04/04 04:41:53;;;;;;;;;;;;;;;5.45;99.06;101108.41;1871988;76;20205;-74
2021/04/04 04:44:24;;;;;;;;;;;;;;;5.48;99.08;101110.88;1872249;76;21181;-74
2021/04/04 04:46:52;;;;;;;;;;;;;;;5.52;98.95;101107.73;1872351;76;20213;-73
2021/04/04 04:49:21;;;;;;;;;;;;;;;5.53;98.86;101109.39;1873109;76;20328;-73
2021/04/04 04:51:49;;;;;;;;;;;;;;;5.56;98.76;101119.57;1871875;76;20200;-73
2021/04/04 04:54:18;;;;;;;;;;;;;;;5.57;98.78;101122.55;1872097;76;20228;-73
2021/04/04 04:56:46;;;;;;;;;;;;;;;5.56;98.46;101120.86;1872073;76;22095;-75
2021/04/04 04:59:13;;;;;;;;;;;;;;;5.56;98.47;101117.00;1816769;76;20121;-73
2021/04/04 05:01:43;;;;;;;;;;;;;;;5.57;98.31;101119.53;1843813;76;20157;-72
2021/04/04 05:04:11;;;;;;;;;;;;;;;5.58;98.27;101117.80;1872178;76;20546;-73
2021/04/04 05:06:39;;;;;;;;;;;;;;;5.58;97.92;101122.95;1872149;76;20233;-74
2021/04/04 05:09:08;;;;;;;;;;;;;;;5.56;97.99;101132.44;1872318;76;20905;-74
2021/04/04 05:11:41;;;;;;;;;;;;;;;5.59;98.30;101131.04;1872247;76;20141;-72
2021/04/04 05:14:13;;;;;;;;;;;;;;;5.63;98.49;101128.30;1872099;76;20503;-73
2021/04/04 05:16:41;;;;;;;;;;;;;;;5.66;98.29;101132.05;1871554;76;20189;-72
2021/04/04 05:19:10;;;;;;;;;;;;;;;5.72;98.22;101138.24;1872124;76;20240;-72
2021/04/04 05:21:42;;;;;;;;;;;;;;;5.76;98.17;101136.39;1871949;76;21190;-72
2021/04/04 05:24:11;;;;;;;;;;;;;;;5.77;97.98;101132.48;1871955;76;20137;-71
2021/04/04 05:26:45;;;;;;;;;;;;;;;5.77;97.61;101127.78;1871840;76;20122;-74
2021/04/04 05:29:15;;;;;;;;;;;;;;;5.81;97.64;101137.88;1872692;76;20154;-72
2021/04/04 05:31:50;;;;;;;;;;;;;;;5.87;97.15;101143.75;1871982;76;20264;-73
2021/04/04 05:34:20;;;;;;;;;;;;;;;5.89;97.00;101146.64;1872088;76;21693;-74
2021/04/04 05:36:53;;;;;;;;;;;;;;;5.95;96.90;101144.27;1871928;76;20225;-73
2021/04/04 05:39:28;;;;;;;;;;;;;;;5.99;96.23;101147.97;1872025;76;20280;-72
2021/04/04 05:42:00;;;;;;;;;;;;;;;6.01;95.70;101150.02;1872037;76;20157;-73
2021/04/04 05:44:41;;;;;;;;;;;;;;;6.02;95.79;101149.58;1872238;76;20122;-74
2021/04/04 05:47:31;;;;;;;;;;;;;;;6.06;95.29;101140.36;1872243;76;22210;-74
2021/04/04 05:50:08;;;;;;;;;;;;;;;6.07;94.54;101142.05;1872192;76;20563;-74
2021/04/04 05:52:58;;;;;;;;;;;;;;;6.09;93.99;101150.58;1872051;76;20237;-73
2021/04/04 05:55:48;;;;;;;;;;;;;;;6.09;93.69;101148.00;1872278;76;20229;-73
2021/04/04 05:58:32;;;;;;;;;;;;;;;6.10;93.72;101153.96;1872023;76;20154;-73
2021/04/04 06:01:03;;;;;;;;;;;;;;;6.09;93.69;101162.61;1827888;76;22380;-75
2021/04/04 06:03:41;;;;;;;;;;;;;;;6.12;94.30;101165.06;1868049;76;20732;-74
2021/04/04 06:06:29;;;;;;;;;;;;;;;6.15;94.33;101163.21;1866199;76;20109;-75
2021/04/04 06:09:10;;;;;;;;;;;;;;;6.14;93.60;101165.84;1872036;76;20280;-74
2021/04/04 06:12:06;;;;;;;;;;;;;;;6.21;92.83;101165.54;1872263;76;20217;-75
2021/04/04 06:14:40;;;;;;;;;;;;;;;6.27;92.15;101168.31;1872518;76;21119;-76
2021/04/04 06:17:27;;;;;;;;;;;;;;;6.37;91.68;101167.05;1872251;76;20189;-75
2021/04/04 06:20:12;;;;;;;;;;;;;;;6.43;90.76;101167.24;1872238;76;20546;-75
2021/04/04 06:22:45;;;;;;;;;;;;;;;6.47;90.54;101170.09;1872109;76;20209;-74
2021/04/04 06:25:19;;;;;;;;;;;;;;;6.56;90.34;101172.28;1872426;76;20146;-76
2021/04/04 06:27:51;;;;;;;;;;;;;;;6.57;89.62;101173.97;1872717;76;21185;-74
2021/04/04 06:30:47;;;;;;;;;;;;;;;6.56;89.13;101177.44;1872078;76;20241;-75
2021/04/04 06:33:27;;;;;;;;;;;;;;;6.53;88.25;101175.84;1872228;76;20209;-74
2021/04/04 06:36:07;;;;;;;;;;;;;;;6.44;87.71;101175.38;1865109;76;20157;-75
2021/04/04 06:38:55;;;;;;;;;;;;;;;6.45;88.13;101177.88;1856505;77;20495;-73
2021/04/04 06:41:35;;;;;;;;;;;;;;;6.45;87.98;101178.31;1856739;77;22122;-74
2021/04/04 06:44:15;;;;;;;;;;;;;;;6.40;88.16;101175.95;1856466;77;20212;-73
2021/04/04 06:47:01;;;;;;;;;;;;;;;6.39;88.43;101178.97;1856479;77;20233;-75
2021/04/04 06:50:06;;;;;;;;;;;;;;;6.43;88.79;101179.69;1856737;77;20570;-73
2021/04/04 06:52:46;;;;;;;;;;;;;;;6.52;88.39;101187.48;1856880;77;20495;-72
2021/04/04 06:55:34;;;;;;;;;;;;;;;6.50;87.68;101184.98;1856291;77;21458;-73
2021/04/04 06:58:17;;;;;;;;;;;;;;;6.46;87.67;101183.88;1856381;77;20242;-76
2021/04/04 07:00:57;;;;;;;;;;;;;;;6.48;88.17;101186.77;1856424;77;20267;-73
2021/04/04 07:03:27;;;;;;;;;;;;;;;6.58;87.48;101189.81;1856523;77;20234;-76
2021/04/04 07:05:59;;;;;;;;;;;;;;;6.68;87.89;101185.95;1856675;77;20255;-74
2021/04/04 07:09:01;;;;;;;;;;;;;;;6.86;87.73;101192.95;1856630;77;21270;-74
2021/04/04 07:11:37;;;;;;;;;;;;;;;7.02;87.04;101195.23;1856367;77;20165;-73
2021/04/04 07:14:27;;;;;;;;;;;;;;;7.17;86.26;101200.20;1824376;77;20197;-76
2021/04/04 07:17:07;;;;;;;;;;;;;;;7.22;85.54;101196.95;1856076;77;20226;-73
2021/04/04 07:19:44;;;;;;;;;;;;;;;7.30;84.48;101202.20;1856312;77;20214;-72
2021/04/04 07:22:36;;;;;;;;;;;;;;;7.37;84.01;101203.58;1855818;77;21139;-72
2021/04/04 07:25:31;;;;;;;;;;;;;;;7.54;83.46;101200.25;1856483;77;20222;-71
2021/04/04 07:28:12;;;;;;;;;;;;;;;7.61;82.50;101207.27;1856317;77;20193;-72
2021/04/04 07:30:46;;;;;;;;;;;;;;;7.65;83.19;101204.49;1856188;77;20138;-74
2021/04/04 07:33:39;;;;;;;;;;;;;;;7.69;82.56;101212.47;1856656;77;20132;-73
2021/04/04 07:36:24;;;;;;;;;;;;;;;7.75;82.52;101213.95;1862457;76;20225;-74
2021/04/04 07:39:12;;;;;;;;;;;;;;;7.94;82.51;101218.19;1871749;76;20578;-74
2021/04/04 07:42:02;;;;;;;;;;;;;;;8.14;81.17;101221.14;1867821;76;20150;-75
2021/04/04 07:44:39;;;;;;;;;;;;;;;8.27;80.74;101222.69;1871515;76;20149;-74
2021/04/04 07:47:13;;;;;;;;;;;;;;;8.33;80.62;101223.27;1816975;76;20237;-73
2021/04/04 07:49:59;;;;;;;;;;;;;;;8.42;80.06;101229.77;1871896;76;21187;-74
2021/04/04 07:52:33;;;;;;;;;;;;;;;8.40;79.60;101230.28;1872020;76;20950;-73
2021/04/04 07:55:14;;;;;;;;;;;;;;;8.31;78.80;101233.31;1872055;76;20161;-73
2021/04/04 07:58:20;;;;;;;;;;;;;;;8.21;78.26;101241.08;1872225;76;20158;-74
2021/04/04 08:00:54;;;;;;;;;;;;;;;8.15;78.04;101233.16;1871973;76;20213;-73
2021/04/04 08:03:31;;;;;;;;;;;;;;;8.16;78.32;101225.80;1870526;76;21356;-74
2021/04/04 08:06:02;;;;;;;;;;;;;;;8.19;78.26;101224.81;1872055;76;20141;-73
2021/04/04 08:08:59;;;;;;;;;;;;;;;8.23;79.01;101220.70;1872241;76;20566;-73
2021/04/04 08:11:30;;;;;;;;;;;;;;;8.30;78.57;101228.59;1872251;76;20154;-74
2021/04/04 08:14:06;;;;;;;;;;;;;;;8.38;77.98;101226.94;1873152;76;20586;-74
2021/04/04 08:16:43;;;;;;;;;;;;;;;8.56;78.54;101234.26;1872460;76;22831;-74
2021/04/04 08:19:11;;;;;;;;;;;;;;;8.86;77.38;101231.47;1872069;76;20145;-73
2021/04/04 08:21:48;;;;;;;;;;;;;;;9.07;75.64;101227.80;1872048;76;20106;-73
2021/04/04 08:24:45;;;;;;;;;;;;;;;9.05;73.14;101233.52;1871879;76;20585;-73
2021/04/04 08:27:32;;;;;;;;;;;;;;;8.95;72.16;101237.03;1872138;76;20213;-73
2021/04/04 08:30:03;;;;;;;;;;;;;;;8.80;73.05;101242.97;1766286;81;21212;-73
2021/04/04 08:32:59;;;;;;;;;;;;;;;8.60;73.69;101240.97;1970038;73;20294;-71
2021/04/04 08:35:30;;;;;;;;;;;;;;;8.47;74.64;101245.44;1938487;74;20144;-70
2021/04/04 08:38:07;;;;;;;;;;;;;;;8.34;74.13;101244.80;1938756;74;22112;-72
2021/04/04 08:40:37;;;;;;;;;;;;;;;8.17;75.08;101244.26;1938564;74;20129;-72
2021/04/04 08:43:05;;;;;;;;;;;;;;;8.10;76.46;101248.52;1938430;74;20224;-74
2021/04/04 08:45:39;;;;;;;;;;;;;;;8.03;75.84;101249.25;1938383;74;20125;-72
2021/04/04 08:48:07;;;;;;;;;;;;;;;7.97;76.69;101251.67;1938584;74;20180;-72
2021/04/04 08:50:35;;;;;;;;;;;;;;;7.92;76.80;101254.05;1938448;74;20514;-74
2021/04/04 08:53:36;;;;;;;;;;;;;;;7.87;77.18;101254.73;1938726;74;20549;-73
2021/04/04 08:56:05;;;;;;;;;;;;;;;7.89;78.09;101254.20;1939015;74;20192;-72
2021/04/04 08:58:42;;;;;;;;;;;;;;;7.88;77.11;101252.06;1938529;74;20118;-73
2021/04/04 09:01:11;;;;;;;;;;;;;;;7.87;77.48;101259.45;1938382;74;20101;-74
2021/04/04 09:03:41;;;;;;;;;;;;;;;7.94;78.47;101256.95;1938289;74;21237;-75
2021/04/04 09:06:09;;;;;;;;;;;;;;;8.03;78.44;101257.45;1938274;74;20164;-73
2021/04/04 09:08:41;;;;;;;;;;;;;;;8.15;78.42;101260.76;1938338;74;20156;-73
2021/04/04 09:11:12;;;;;;;;;;;;;;;8.20;77.89;101258.33;1938359;74;20176;-74
2021/04/04 09:13:41;;;;;;;;;;;;;;;8.15;77.28;101259.02;1938240;74;20248;-73
2021/04/04 09:16:13;;;;;;;;;;;;;;;8.06;78.21;101258.16;1938434;74;21170;-75
2021/04/04 09:18:51;;;;;;;;;;;;;;;7.99;79.68;101255.45;1938209;74;20882;-76
2021/04/04 09:21:20;;;;;;;;;;;;;;;7.99;79.72;101256.75;1938393;74;20479;-71
2021/04/04 09:23:49;;;;;;;;;;;;;;;8.01;79.84;101247.65;1938289;74;20133;-74
2021/04/04 09:26:22;;;;;;;;;;;;;;;8.15;80.01;101251.27;1938502;74;20157;-75
2021/04/04 09:28:51;;;;;;;;;;;;;;;8.33;79.68;101253.01;1938525;74;22167;-75
2021/04/04 09:31:22;;;;;;;;;;;;;;;8.52;78.02;101255.55;1937411;74;20144;-75
2021/04/04 09:34:03;;;;;;;;;;;;;;;8.65;77.39;101250.17;1936785;74;20118;-76
2021/04/04 09:36:46;;;;;;;;;;;;;;;8.81;77.61;101261.90;1937824;74;20125;-74
2021/04/04 09:39:25;;;;;;;;;;;;;;;8.90;77.27;101255.81;1936006;74;20141;-73
2021/04/04 09:41:53;;;;;;;;;;;;;;;8.88;75.88;101261.53;1908022;74;21259;-74
2021/04/04 09:44:29;;;;;;;;;;;;;;;8.87;76.01;101265.51;1935611;74;20189;-71
2021/04/04 09:46:59;;;;;;;;;;;;;;;9.02;75.45;101269.47;1935418;74;20232;-74
2021/04/04 09:49:45;;;;;;;;;;;;;;;9.24;73.04;101273.55;1935638;74;20153;-73
2021/04/04 09:52:20;;;;;;;;;;;;;;;9.26;72.98;101272.55;1935727;74;20121;-74
2021/04/04 09:55:02;;;;;;;;;;;;;;;9.20;72.59;101273.33;1935486;74;21388;-74
2021/04/04 09:57:41;;;;;;;;;;;;;;;9.24;73.48;101272.27;1926133;74;20754;-71
2021/04/04 10:00:25;;;;;;;;;;;;;;;9.22;73.03;101268.44;1935722;74;20259;-72
2021/04/04 10:02:55;;;;;;;;;;;;;;;9.15;72.23;101265.80;1935392;74;20177;-73
2021/04/04 10:05:27;;;;;;;;;;;;;;;9.16;72.42;101264.87;1935664;74;20102;-73
2021/04/04 10:07:55;;;;;;;;;;;;;;;9.22;72.27;101264.55;1935399;74;21234;-72
2021/04/04 10:10:30;;;;;;;;;;;;;;;9.36;72.63;101264.70;1935381;74;20189;-71
2021/04/04 10:12:59;;;;;;;;;;;;;;;9.57;72.55;101264.06;1935265;74;20316;-72
2021/04/04 10:15:28;;;;;;;;;;;;;;;9.75;70.99;101262.25;1935316;74;20114;-73
2021/04/04 10:17:57;;;;;;;;;;;;;;;9.78;69.11;101260.33;1935981;74;20126;-73
2021/04/04 10:20:41;;;;;;;;;;;;;;;9.78;69.14;101265.52;1935433;74;21176;-74
2021/04/04 10:23:08;;;;;;;;;;;;;;;9.77;69.25;101268.17;1935437;74;20557;-74
2021/04/04 10:25:36;;;;;;;;;;;;;;;9.88;68.71;101263.27;1935348;74;20141;-75
2021/04/04 10:28:07;;;;;;;;;;;;;;;9.96;68.26;101255.45;1935376;74;20212;-76
2021/04/04 10:30:36;;;;;;;;;;;;;;;10.11;69.21;101259.80;1934687;74;20168;-75
2021/04/04 10:33:21;;;;;;;;;;;;;;;10.20;68.58;101258.52;1937552;73;22105;-71
2021/04/04 10:35:49;;;;;;;;;;;;;;;10.23;68.19;101263.53;1937822;74;20137;-77
2021/04/04 10:38:19;;;;;;;;;;;;;;;10.16;67.48;101264.78;1938027;74;20125;-71
2021/04/04 10:40:54;;;;;;;;;;;;;;;9.91;67.40;101264.41;1937689;74;20299;-75
2021/04/04 10:43:42;;;;;;;;;;;;;;;9.70;68.95;101267.66;1937578;74;20197;-73
2021/04/04 10:46:12;;;;;;;;;;;;;;;9.54;70.65;101272.81;1938015;74;22084;-74
2021/04/04 10:48:45;;;;;;;;;;;;;;;9.35;69.87;101266.90;1937365;74;20125;-77
2021/04/04 10:51:15;;;;;;;;;;;;;;;9.20;71.18;101266.39;1937621;74;20124;-71
2021/04/04 10:53:43;;;;;;;;;;;;;;;9.18;72.39;101268.23;1937626;74;20231;-76
2021/04/04 10:56:12;;;;;;;;;;;;;;;9.20;72.06;101269.44;1937712;74;20176;-73
2021/04/04 10:58:40;;;;;;;;;;;;;;;9.11;70.75;101275.09;1938876;74;21174;-76
2021/04/04 11:01:12;;;;;;;;;;;;;;;8.98;70.39;101267.94;1938265;74;20520;-75
2021/04/04 11:03:41;;;;;;;;;;;;;;;8.93;71.77;101271.19;1937669;74;20117;-76
2021/04/04 11:06:12;;;;;;;;;;;;;;;9.04;71.78;101270.66;1937711;74;20101;-75
2021/04/04 11:08:42;;;;;;;;;;;;;;;9.18;70.80;101270.83;1937855;74;20483;-76
2021/04/04 11:11:13;;;;;;;;;;;;;;;9.39;70.25;101272.31;1937681;74;21172;-74
2021/04/04 11:13:44;;;;;;;;;;;;;;;9.70;69.67;101274.14;1902571;74;20105;-75
2021/04/04 11:16:15;;;;;;;;;;;;;;;9.94;68.10;101270.27;1937478;74;20133;-75
2021/04/04 11:18:50;;;;;;;;;;;;;;;10.14;67.69;101265.33;1937561;74;20293;-76
2021/04/04 11:21:24;;;;;;;;;;;;;;;10.04;66.09;101267.56;1937704;74;20102;-74
2021/04/04 11:23:54;;;;;;;;;;;;;;;9.97;66.35;101270.55;1937311;74;20988;-74
2021/04/04 11:26:27;;;;;;;;;;;;;;;9.97;66.89;101266.20;1937632;74;20168;-76
2021/04/04 11:29:17;;;;;;;;;;;;;;;9.98;67.66;101269.19;1937634;74;20216;-74
2021/04/04 11:31:47;;;;;;;;;;;;;;;9.95;66.85;101269.81;1937712;74;20276;-71
2021/04/04 11:34:35;;;;;;;;;;;;;;;9.97;67.65;101258.88;1937896;74;20480;-78
2021/04/04 11:37:16;;;;;;;;;;;;;;;10.08;65.91;101262.56;1938596;74;21180;-74
2021/04/04 11:40:17;;;;;;;;;;;;;;;10.29;63.76;101263.19;1939296;74;20152;-78
2021/04/04 11:42:50;;;;;;;;;;;;;;;10.49;60.85;101253.84;1937791;74;20185;-76
2021/04/04 11:45:34;;;;;;;;;;;;;;;10.61;60.53;101249.71;1932634;74;20140;-75
2021/04/04 11:48:25;;;;;;;;;;;;;;;10.83;59.93;101246.72;1937692;74;20165;-74
2021/04/04 11:50:53;;;;;;;;;;;;;;;11.05;58.77;101240.19;1934137;74;21263;-74
2021/04/04 11:53:45;;;;;;;;;;;;;;;11.33;59.18;101239.38;1937625;74;20616;-76
2021/04/04 11:56:26;;;;;;;;;;;;;;;11.57;58.94;101237.08;1937123;74;20106;-76
2021/04/04 11:58:54;;;;;;;;;;;;;;;11.77;58.82;101240.64;1884884;74;20291;-73
2021/04/04 12:01:21;;;;;;;;;;;;;;;11.75;58.66;101239.88;1902486;74;20252;-78
2021/04/04 12:03:50;;;;;;;;;;;;;;;11.48;57.40;101232.44;1937720;74;21172;-74
2021/04/04 12:06:17;;;;;;;;;;;;;;;11.18;58.39;101239.00;1938901;74;20117;-76
2021/04/04 12:08:45;;;;;;;;;;;;;;;10.97;59.42;101238.98;1937790;74;20542;-75
2021/04/04 12:11:14;;;;;;;;;;;;;;;10.85;60.80;101239.20;1937807;74;20106;-75
2021/04/04 12:13:43;;;;;;;;;;;;;;;10.93;61.27;101237.47;1937558;74;20145;-73
2021/04/04 12:16:11;;;;;;;;;;;;;;;11.03;61.73;101239.45;1937725;74;21114;-75
2021/04/04 12:18:38;;;;;;;;;;;;;;;11.11;61.11;101238.53;1937665;74;20408;-75
2021/04/04 12:21:06;;;;;;;;;;;;;;;11.11;60.76;101237.23;1937819;74;20491;-74
2021/04/04 12:23:34;;;;;;;;;;;;;;;10.96;60.62;101235.54;1938639;74;20110;-75
2021/04/04 12:26:01;;;;;;;;;;;;;;;10.81;62.53;101232.55;1937701;74;20165;-76
2021/04/04 12:28:31;;;;;;;;;;;;;;;10.82;63.62;101233.35;1937881;74;20804;-72
2021/04/04 12:30:59;;;;;;;;;;;;;;;10.88;62.16;101231.23;1902423;74;20189;-73
2021/04/04 12:33:27;;;;;;;;;;;;;;;10.88;61.50;101240.33;1937490;74;20140;-76
2021/04/04 12:35:56;;;;;;;;;;;;;;;10.86;62.33;101234.86;1864241;74;20284;-75
2021/04/04 12:38:32;;;;;;;;;;;;;;;10.92;63.25;101233.20;1864061;74;20217;-74
2021/04/04 12:41:02;;;;;;;;;;;;;;;11.04;62.15;101229.91;1937423;74;21122;-76
2021/04/04 12:43:30;;;;;;;;;;;;;;;11.13;62.14;101225.00;1937381;74;20102;-74
2021/04/04 12:45:58;;;;;;;;;;;;;;;11.56;62.34;101231.50;1937665;74;20125;-76
2021/04/04 12:48:26;;;;;;;;;;;;;;;12.20;60.89;101227.06;1937652;74;20267;-74
2021/04/04 12:50:58;;;;;;;;;;;;;;;12.81;57.75;101219.17;1937716;74;20136;-76
2021/04/04 12:53:31;;;;;;;;;;;;;;;13.01;56.36;101212.17;1937612;74;21184;-76
2021/04/04 12:56:01;;;;;;;;;;;;;;;13.00;56.66;101210.03;1937407;74;20121;-75
2021/04/04 12:58:30;;;;;;;;;;;;;;;12.98;56.03;101214.52;1937678;74;20224;-77
2021/04/04 13:00:59;;;;;;;;;;;;;;;12.81;55.13;101211.36;1937665;74;20508;-71
2021/04/04 13:03:34;;;;;;;;;;;;;;;12.58;54.96;101208.50;1938205;74;20245;-76
2021/04/04 13:06:02;;;;;;;;;;;;;;;12.35;56.04;101209.64;1938799;74;21445;-76
2021/04/04 13:08:32;;;;;;;;;;;;;;;12.16;55.71;101204.76;1937697;74;20133;-76
2021/04/04 13:11:04;;;;;;;;;;;;;;;12.19;57.79;101203.27;1937573;74;20141;-75
2021/04/04 13:13:34;;;;;;;;;;;;;;;12.29;56.60;101200.91;1937588;74;20236;-77